Time;durP1;ratioP1;P1;durP2;ratioP2;P2;SDS_P1;SDS_P2;PMS_P1;PMS_P2;Temp;Humidity;BMP_temperature;BMP_pressure;BME280_temperature;BME280_humidity;BME280_pressure;Samples;Min_cycle;Max_cycle;Signal;HPM_P1;HPM_P2
2023/09/28 00:02:58;;;;;;;2.28;0.88;;;;;;;25.38;50.59;101253.59;5032486;28;20040;-51
2023/09/28 00:05:24;;;;;;;1.38;0.60;;;;;;;25.32;50.13;101246.50;5032134;28;20048;-47
2023/09/28 00:07:50;;;;;;;1.15;0.60;;;;;;;25.29;49.99;101245.19;5032225;28;20040;-45
2023/09/28 00:10:17;;;;;;;4.68;1.02;;;;;;;24.98;50.81;101242.81;5032315;28;20528;-46
2023/09/28 00:12:47;;;;;;;2.58;0.88;;;;;;;24.86;51.21;101249.81;5032168;28;20029;-46
2023/09/28 00:15:14;;;;;;;4.13;0.70;;;;;;;24.82;51.40;101244.13;5035852;28;20462;-45
2023/09/28 00:17:40;;;;;;;1.38;0.60;;;;;;;24.73;51.64;101243.94;5036192;28;20033;-46
2023/09/28 00:20:18;;;;;;;1.73;0.63;;;;;;;24.68;51.12;101245.91;5036235;28;20087;-49
2023/09/28 00:22:46;;;;;;;1.65;0.80;;;;;;;24.42;52.60;101245.38;5035975;28;20029;-48
2023/09/28 00:25:13;;;;;;;2.15;0.65;;;;;;;24.50;52.67;101244.75;5035905;28;20029;-45
2023/09/28 00:27:43;;;;;;;1.85;0.90;;;;;;;24.40;53.68;101237.44;5036054;28;20117;-46
2023/09/28 00:30:18;;;;;;;2.22;0.57;;;;;;;24.30;52.53;101242.19;5036102;28;20017;-45
2023/09/28 00:32:45;;;;;;;;;;;;;;;24.30;52.35;101245.72;5036039;28;20037;-53
2023/09/28 00:35:11;;;;;;;3.55;0.90;;;;;;;24.15;53.38;101241.22;5036449;28;19920;-52
2023/09/28 00:37:37;;;;;;;2.25;0.80;;;;;;;24.02;53.48;101247.34;5035551;28;20431;-59
2023/09/28 00:40:17;;;;;;;1.77;0.85;;;;;;;23.96;53.86;101243.03;5035743;28;20021;-57
2023/09/28 00:42:51;;;;;;;2.67;0.73;;;;;;;24.09;53.40;101247.00;5035858;28;20060;-54
2023/09/28 00:45:23;;;;;;;2.92;1.00;;;;;;;23.98;54.60;101252.56;5035391;28;20172;-51
2023/09/28 00:47:51;;;;;;;3.25;0.77;;;;;;;23.84;54.75;101245.31;5035430;28;20032;-49
2023/09/28 00:50:18;;;;;;;2.80;1.13;;;;;;;23.65;54.31;101243.25;5035525;28;20029;-46
2023/09/28 00:52:52;;;;;;;3.78;1.10;;;;;;;23.57;55.65;101246.56;5035781;28;20081;-49
2023/09/28 00:55:20;;;;;;;4.63;1.33;;;;;;;23.28;56.26;101246.44;5035736;28;20107;-49
2023/09/28 00:57:48;;;;;;;2.05;1.10;;;;;;;23.18;56.68;101247.31;5035454;28;20018;-46
2023/09/28 01:00:26;;;;;;;1.40;0.90;;;;;;;23.05;56.56;101247.13;5035886;28;20029;-48
2023/09/28 01:02:55;;;;;;;2.67;0.95;;;;;;;22.82;57.30;101249.34;5035254;28;20030;-48
2023/09/28 01:05:26;;;;;;;2.97;1.10;;;;;;;22.84;57.02;101249.88;5035956;28;20332;-49
2023/09/28 01:07:55;;;;;;;2.38;1.10;;;;;;;22.69;57.62;101247.19;5035119;28;20030;-48
2023/09/28 01:10:24;;;;;;;1.60;0.82;;;;;;;22.40;58.17;101255.16;5035243;28;20037;-50
2023/09/28 01:12:51;;;;;;;6.32;1.13;;;;;;;22.25;61.09;101261.44;5035095;28;20025;-46
2023/09/28 01:15:18;;;;;;;1.70;1.10;;;;;;;21.95;63.44;101261.44;5035457;28;20037;-48
2023/09/28 01:17:44;;;;;;;3.78;1.08;;;;;;;22.00;62.78;101262.25;5017476;28;20494;-47
2023/09/28 01:20:30;;;;;;;2.33;0.60;;;;;;;21.83;62.42;101261.69;5034910;28;20053;-48
2023/09/28 01:22:56;;;;;;;2.78;0.70;;;;;;;21.53;63.90;101259.72;5034939;28;20052;-51
2023/09/28 01:25:23;;;;;;;3.30;1.00;;;;;;;21.47;64.12;101258.06;5034866;28;20100;-48
2023/09/28 01:27:50;;;;;;;2.72;0.95;;;;;;;21.26;64.71;101271.59;5034843;28;20039;-50
2023/09/28 01:30:17;;;;;;;2.33;0.80;;;;;;;21.24;65.53;101271.03;5034370;28;20040;-48
2023/09/28 01:32:43;;;;;;;3.13;0.73;;;;;;;21.00;66.53;101262.50;5034440;28;20634;-49
2023/09/28 01:35:12;;;;;;;4.10;1.10;;;;;;;20.93;66.67;101263.81;5034718;28;20029;-47
2023/09/28 01:37:44;;;;;;;1.80;0.82;;;;;;;20.80;67.40;101260.50;5034597;28;20037;-47
2023/09/28 01:40:13;;;;;;;2.30;1.30;;;;;;;20.48;68.46;101266.00;5034750;28;20033;-48
2023/09/28 01:42:39;;;;;;;4.15;1.05;;;;;;;20.42;68.88;101269.75;5034560;28;20029;-51
2023/09/28 01:45:06;;;;;;;3.38;1.05;;;;;;;20.40;68.38;101271.09;5034682;28;20022;-51
2023/09/28 01:47:33;;;;;;;4.18;1.20;;;;;;;20.34;68.23;101272.97;5034728;28;20029;-48
2023/09/28 01:50:00;;;;;;;2.58;0.88;;;;;;;20.27;68.00;101273.19;5034606;28;20021;-50
2023/09/28 01:52:27;;;;;;;2.78;1.00;;;;;;;20.15;67.90;101277.97;5034051;28;20017;-50
2023/09/28 01:54:53;;;;;;;1.50;0.93;;;;;;;20.02;66.92;101281.13;5034453;28;20127;-48
2023/09/28 01:57:20;;;;;;;2.55;1.20;;;;;;;19.99;66.57;101284.38;5034237;28;20029;-51
2023/09/28 01:59:47;;;;;;;2.65;0.65;;;;;;;20.00;66.05;101289.53;5016675;28;20374;-50
2023/09/28 02:02:15;;;;;;;1.88;0.73;;;;;;;19.90;66.53;101283.19;5034264;28;20502;-48
2023/09/28 02:04:43;;;;;;;2.08;0.82;;;;;;;19.67;67.66;101285.13;5034903;28;20030;-50
2023/09/28 02:07:10;;;;;;;2.60;0.90;;;;;;;19.68;67.53;101275.09;5033891;28;20034;-48
2023/09/28 02:09:36;;;;;;;1.92;0.70;;;;;;;19.63;67.97;101272.31;5034496;28;20109;-46
2023/09/28 02:12:03;;;;;;;1.08;0.63;;;;;;;19.64;68.36;101280.19;5034145;28;20105;-48
2023/09/28 02:14:30;;;;;;;2.88;0.70;;;;;;;19.69;68.47;101280.25;5033953;28;20025;-47
2023/09/28 02:16:57;;;;;;;1.58;0.75;;;;;;;19.47;68.95;101285.69;5034047;28;20493;-50
2023/09/28 02:19:23;;;;;;;2.30;1.17;;;;;;;19.58;68.41;101289.34;5034245;28;20037;-48
2023/09/28 02:21:51;;;;;;;2.50;0.90;;;;;;;19.43;68.69;101283.72;5033974;28;20051;-47
2023/09/28 02:24:17;;;;;;;3.65;0.90;;;;;;;19.39;68.48;101279.91;5034442;28;20104;-47
2023/09/28 02:26:47;;;;;;;2.70;0.90;;;;;;;19.42;68.73;101277.47;5033769;28;20385;-48
2023/09/28 02:29:13;;;;;;;2.88;0.85;;;;;;;19.38;67.58;101281.00;5033764;28;20025;-47
2023/09/28 02:31:43;;;;;;;3.50;1.35;;;;;;;19.34;67.05;101279.84;5033853;28;20030;-47
2023/09/28 02:34:09;;;;;;;2.28;0.90;;;;;;;19.36;66.79;101277.69;5033941;28;20057;-50
2023/09/28 02:36:36;;;;;;;1.88;0.88;;;;;;;19.41;66.04;101275.03;5032582;28;20497;-49
2023/09/28 02:39:07;;;;;;;4.25;1.10;;;;;;;19.24;66.15;101275.09;5033485;28;20026;-50
2023/09/28 02:41:35;;;;;;;2.10;0.88;;;;;;;19.17;66.36;101267.16;5033805;28;20024;-50
2023/09/28 02:44:01;;;;;;;2.95;1.23;;;;;;;19.09;66.17;101270.31;5033340;28;20025;-53
2023/09/28 02:46:28;;;;;;;3.67;1.40;;;;;;;19.03;66.16;101265.88;5032262;28;20065;-49
2023/09/28 02:48:55;;;;;;;5.32;1.30;;;;;;;19.04;65.85;101264.81;5033281;28;20421;-47
2023/09/28 02:51:22;;;;;;;4.68;1.25;;;;;;;18.93;66.57;101276.59;5033352;28;20033;-51
2023/09/28 02:53:48;;;;;;;4.40;1.58;;;;;;;18.90;66.70;101269.81;5032997;28;20113;-51
2023/09/28 02:56:15;;;;;;;5.30;1.42;;;;;;;18.78;66.19;101271.00;5033227;28;20438;-48
2023/09/28 02:58:41;;;;;;;3.42;1.40;;;;;;;18.57;66.77;101276.06;5033598;28;20052;-51
2023/09/28 03:01:08;;;;;;;4.03;1.35;;;;;;;18.65;66.67;101278.34;5033197;28;20478;-50
2023/09/28 03:03:34;;;;;;;4.72;1.27;;;;;;;18.60;66.89;101280.16;5015340;28;20517;-48
2023/09/28 03:06:01;;;;;;;6.13;1.58;;;;;;;18.58;66.98;101276.91;5033052;28;20052;-50
2023/09/28 03:08:27;;;;;;;3.67;1.60;;;;;;;18.52;66.90;101267.88;5033484;28;20037;-50
2023/09/28 03:10:53;;;;;;;3.25;1.35;;;;;;;18.54;66.78;101267.59;5033031;28;20028;-47
2023/09/28 03:13:20;;;;;;;4.97;1.40;;;;;;;18.56;66.38;101265.50;5033352;28;20123;-49
2023/09/28 03:15:46;;;;;;;5.93;2.00;;;;;;;18.38;67.31;101269.28;5032898;28;20025;-49
2023/09/28 03:18:13;;;;;;;5.88;1.70;;;;;;;18.30;67.27;101265.09;5032929;28;20041;-47
2023/09/28 03:20:44;;;;;;;4.32;1.52;;;;;;;18.30;67.18;101266.97;5033129;28;20101;-50
2023/09/28 03:23:14;;;;;;;9.02;2.33;;;;;;;18.30;66.88;101269.69;5033162;28;20021;-48
2023/09/28 03:25:42;;;;;;;3.83;1.67;;;;;;;18.14;67.45;101276.75;5033473;28;20029;-47
2023/09/28 03:28:08;;;;;;;8.50;2.30;;;;;;;18.09;68.02;101271.25;5033452;28;20080;-48
2023/09/28 03:30:35;;;;;;;6.05;1.63;;;;;;;18.07;68.35;101274.19;5033061;28;20470;-47
2023/09/28 03:33:01;;;;;;;6.82;1.83;;;;;;;18.09;68.38;101280.19;5032830;28;20033;-48
2023/09/28 03:35:27;;;;;;;5.25;2.10;;;;;;;17.96;68.94;101277.81;5032664;28;20105;-47
2023/09/28 03:37:55;;;;;;;5.85;2.05;;;;;;;18.05;68.48;101283.66;5032561;28;20047;-48
2023/09/28 03:40:21;;;;;;;5.88;2.72;;;;;;;17.90;69.68;101282.31;5032682;28;20473;-48
2023/09/28 03:42:48;;;;;;;6.40;1.95;;;;;;;18.10;69.15;101273.72;5032733;28;20025;-50
2023/09/28 03:45:20;;;;;;;6.55;2.13;;;;;;;17.96;69.36;101290.53;5032878;28;20048;-46
2023/09/28 03:47:50;;;;;;;6.60;2.53;;;;;;;17.99;69.50;101284.59;5033995;28;20052;-46
2023/09/28 03:50:17;;;;;;;7.72;2.20;;;;;;;17.98;69.87;101278.38;5036575;28;20025;-47
2023/09/28 03:52:46;;;;;;;3.53;2.03;;;;;;;17.96;69.57;101285.94;5036601;28;20030;-46
2023/09/28 03:55:18;;;;;;;6.85;2.10;;;;;;;17.83;69.88;101292.47;5036643;28;20026;-50
2023/09/28 03:57:46;;;;;;;4.22;1.80;;;;;;;17.67;71.43;101283.22;5036368;28;20022;-46
2023/09/28 04:00:14;;;;;;;6.35;2.13;;;;;;;17.80;70.56;101281.31;5036354;28;20508;-46
2023/09/28 04:02:41;;;;;;;6.38;2.40;;;;;;;17.72;71.24;101289.81;5036363;28;20458;-49
2023/09/28 04:05:08;;;;;;;8.48;2.67;;;;;;;17.62;72.12;101291.25;5036356;28;20038;-46
2023/09/28 04:07:35;;;;;;;5.78;2.42;;;;;;;17.72;71.62;101284.38;5036179;28;20029;-46
2023/09/28 04:10:03;;;;;;;5.45;2.38;;;;;;;17.87;70.97;101287.38;5036258;28;20501;-47
2023/09/28 04:12:29;;;;;;;6.53;2.55;;;;;;;17.87;71.22;101279.25;5036149;28;20478;-50
2023/09/28 04:14:56;;;;;;;6.70;2.50;;;;;;;17.75;71.54;101279.31;5036109;28;20035;-49
2023/09/28 04:17:22;;;;;;;9.23;2.97;;;;;;;17.72;72.95;101290.66;5036827;28;20025;-48
2023/09/28 04:19:48;;;;;;;7.82;2.92;;;;;;;17.78;73.37;101278.84;5035905;28;20036;-49
2023/09/28 04:22:16;;;;;;;6.20;2.55;;;;;;;17.76;73.29;101274.72;5036006;28;20458;-46
2023/09/28 04:24:43;;;;;;;6.78;2.75;;;;;;;17.68;73.82;101279.44;5035944;28;20120;-50
2023/09/28 04:27:09;;;;;;;11.57;3.08;;;;;;;17.56;75.26;101278.69;5036065;28;20346;-46
2023/09/28 04:29:36;;;;;;;10.50;3.70;;;;;;;17.56;75.41;101284.09;5036044;28;20022;-46
2023/09/28 04:32:02;;;;;;;10.20;2.90;;;;;;;17.47;76.21;101271.19;5035878;28;20524;-49
2023/09/28 04:34:31;;;;;;;10.02;3.25;;;;;;;17.41;76.02;101273.78;5035865;28;20063;-50
2023/09/28 04:36:58;;;;;;;7.30;2.78;;;;;;;17.41;75.99;101275.66;5035550;28;20128;-46
2023/09/28 04:39:26;;;;;;;9.98;3.10;;;;;;;17.38;76.18;101274.28;5035847;28;20021;-48
2023/09/28 04:41:54;;;;;;;6.40;2.88;;;;;;;17.33;76.56;101268.75;5035742;28;20056;-48
2023/09/28 04:44:21;;;;;;;10.68;2.72;;;;;;;17.44;75.94;101277.09;5035587;28;20029;-50
2023/09/28 04:46:50;;;;;;;6.18;2.20;;;;;;;17.44;75.83;101274.38;5035477;28;20474;-46
2023/09/28 04:49:20;;;;;;;6.90;2.45;;;;;;;17.34;76.15;101283.09;5035603;28;20057;-48
2023/09/28 04:51:46;;;;;;;6.53;2.60;;;;;;;17.34;76.26;101272.28;5035556;28;20060;-48
2023/09/28 04:54:13;;;;;;;5.97;2.45;;;;;;;17.40;76.06;101274.03;5035767;28;20029;-49
2023/09/28 04:56:40;;;;;;;7.53;3.10;;;;;;;17.36;76.06;101270.97;5035447;28;20411;-50
2023/09/28 04:59:06;;;;;;;6.82;2.40;;;;;;;17.47;75.61;101272.00;5034528;28;20022;-51
2023/09/28 05:01:33;;;;;;;6.53;2.88;;;;;;;17.58;75.03;101281.94;5034250;28;20026;-47
2023/09/28 05:04:00;;;;;;;6.22;2.20;;;;;;;17.40;75.76;101282.16;5035215;28;20032;-48
2023/09/28 05:06:27;;;;;;;6.00;2.65;;;;;;;17.25;76.50;101281.81;5035165;28;20028;-49
2023/09/28 05:08:53;;;;;;;5.53;2.38;;;;;;;17.15;76.46;101285.97;5035205;28;20109;-49
2023/09/28 05:11:20;;;;;;;5.50;2.38;;;;;;;17.30;76.30;101282.75;5035221;28;20398;-50
2023/09/28 05:13:47;;;;;;;6.65;2.70;;;;;;;17.25;75.88;101284.53;5035435;28;20493;-47
2023/09/28 05:16:13;;;;;;;7.65;2.90;;;;;;;17.11;76.68;101282.13;5035163;28;20026;-47
2023/09/28 05:18:40;;;;;;;7.90;2.50;;;;;;;17.14;76.35;101284.31;5034928;28;20023;-48
2023/09/28 05:21:07;;;;;;;4.97;2.75;;;;;;;17.08;76.53;101274.47;5035015;28;20079;-47
2023/09/28 05:23:33;;;;;;;4.88;2.17;;;;;;;17.12;76.82;101274.81;5035043;28;20037;-48
2023/09/28 05:26:00;;;;;;;7.32;2.55;;;;;;;17.05;77.32;101283.06;5034842;28;20032;-48
2023/09/28 05:28:27;;;;;;;6.40;2.25;;;;;;;17.01;78.61;101284.59;5034775;28;20040;-50
2023/09/28 05:30:53;;;;;;;4.35;2.33;;;;;;;16.96;79.17;101281.78;5034768;28;20030;-50
2023/09/28 05:33:19;;;;;;;8.10;2.95;;;;;;;16.94;79.06;101286.59;5049959;28;20438;-50
2023/09/28 05:35:46;;;;;;;7.68;2.70;;;;;;;16.89;79.19;101276.50;5034829;28;20462;-48
2023/09/28 05:38:13;;;;;;;5.35;2.40;;;;;;;16.92;79.24;101271.66;5034558;28;20047;-47
2023/09/28 05:40:39;;;;;;;8.00;2.85;;;;;;;16.89;79.58;101281.91;5034669;28;20021;-49
2023/09/28 05:43:05;;;;;;;8.48;3.08;;;;;;;16.97;80.42;101282.59;5034476;28;20077;-49
2023/09/28 05:45:32;;;;;;;12.63;3.63;;;;;;;17.05;79.86;101290.34;5034643;28;20108;-47
2023/09/28 05:47:58;;;;;;;7.75;2.88;;;;;;;17.07;80.07;101282.81;5034286;28;20033;-47
2023/09/28 05:50:25;;;;;;;9.52;3.38;;;;;;;17.03;79.89;101282.47;5034703;28;20029;-50
2023/09/28 05:52:55;;;;;;;13.85;4.28;;;;;;;17.01;80.21;101287.28;5034659;28;20374;-47
2023/09/28 05:55:22;;;;;;;10.90;3.67;;;;;;;16.84;80.31;101279.09;5034578;28;20072;-47
2023/09/28 05:57:49;;;;;;;11.38;3.65;;;;;;;16.78;80.76;101274.63;5034694;28;20064;-47
2023/09/28 06:00:16;;;;;;;9.40;3.08;;;;;;;16.82;80.62;101285.78;5034403;28;20021;-48
2023/09/28 06:02:42;;;;;;;10.70;4.00;;;;;;;16.64;81.46;101278.59;5034035;28;20036;-50
2023/09/28 06:05:10;;;;;;;18.17;4.30;;;;;;;16.60;82.08;101272.00;5034139;28;20022;-51
2023/09/28 06:07:36;;;;;;;9.18;3.60;;;;;;;16.43;82.45;101269.19;5034076;28;20037;-51
2023/09/28 06:10:03;;;;;;;16.33;4.05;;;;;;;16.52;82.54;101269.66;5034393;28;20106;-51
2023/09/28 06:12:29;;;;;;;10.13;4.20;;;;;;;16.42;82.73;101275.66;5034248;28;20027;-51
2023/09/28 06:14:56;;;;;;;19.42;4.70;;;;;;;16.21;83.89;101284.31;5033905;28;20381;-47
2023/09/28 06:17:24;;;;;;;12.05;4.05;;;;;;;16.34;83.44;101278.72;5033887;28;20060;-47
2023/09/28 06:19:50;;;;;;;12.13;4.18;;;;;;;16.37;83.91;101278.22;5033990;28;20466;-51
2023/09/28 06:22:16;;;;;;;11.98;4.43;;;;;;;16.32;83.70;101280.81;5033872;28;20029;-48
2023/09/28 06:24:43;;;;;;;12.40;4.55;;;;;;;16.26;84.30;101279.03;5033674;28;20026;-47
2023/09/28 06:27:10;;;;;;;10.93;4.05;;;;;;;16.12;85.14;101273.03;5033672;28;20071;-50
2023/09/28 06:29:36;;;;;;;14.15;3.67;;;;;;;16.20;84.47;101277.28;5033685;28;20031;-47
2023/09/28 06:32:04;;;;;;;14.50;4.10;;;;;;;16.19;84.43;101273.75;5033654;28;20051;-48
2023/09/28 06:34:30;;;;;;;14.88;4.45;;;;;;;16.28;84.38;101285.88;5033483;28;20069;-47
2023/09/28 06:36:56;;;;;;;10.73;3.80;;;;;;;16.17;84.49;101273.16;5033359;28;20063;-51
2023/09/28 06:39:23;;;;;;;11.82;4.05;;;;;;;16.20;84.33;101279.97;5033613;28;20026;-49
2023/09/28 06:41:49;;;;;;;10.15;4.28;;;;;;;15.97;85.41;101273.47;5033441;28;20033;-47
2023/09/28 06:44:15;;;;;;;14.45;4.25;;;;;;;16.14;84.97;101279.03;5033446;28;20036;-47
2023/09/28 06:46:44;;;;;;;11.88;4.45;;;;;;;15.92;85.50;101281.44;5033240;28;20545;-47
2023/09/28 06:49:12;;;;;;;12.68;4.68;;;;;;;15.88;85.84;101284.81;5033846;28;20035;-48
2023/09/28 06:51:38;;;;;;;10.30;4.30;;;;;;;15.99;85.37;101282.19;5033157;28;20034;-47
2023/09/28 06:54:05;;;;;;;10.65;4.03;;;;;;;15.96;85.21;101271.81;5033308;28;20440;-48
2023/09/28 06:56:31;;;;;;;14.95;4.88;;;;;;;15.99;85.76;101276.78;5033509;28;20029;-47
2023/09/28 06:58:58;;;;;;;15.15;5.30;;;;;;;15.92;86.03;101270.63;5033249;28;20022;-49
2023/09/28 07:01:24;;;;;;;11.48;4.05;;;;;;;16.02;85.78;101278.19;5033270;28;20053;-47
2023/09/28 07:03:52;;;;;;;21.67;5.22;;;;;;;15.98;85.47;101274.28;5033066;28;20040;-48
2023/09/28 07:06:21;;;;;;;11.70;4.35;;;;;;;16.07;85.13;101270.22;5032930;28;20029;-46
2023/09/28 07:08:48;;;;;;;13.75;4.72;;;;;;;16.01;85.15;101274.66;5033006;28;20462;-46
2023/09/28 07:11:14;;;;;;;10.07;4.00;;;;;;;15.92;85.78;101270.63;5032979;28;20431;-48
2023/09/28 07:13:41;;;;;;;12.68;4.05;;;;;;;15.81;85.33;101266.84;5033084;28;20026;-50
2023/09/28 07:16:10;;;;;;;11.27;4.03;;;;;;;15.84;85.39;101262.88;5033331;28;20143;-48
2023/09/28 07:18:36;;;;;;;11.43;4.40;;;;;;;15.83;85.33;101266.63;5033194;28;20378;-49
2023/09/28 07:21:03;;;;;;;9.32;3.60;;;;;;;15.83;85.25;101267.47;5032937;28;20466;-47
2023/09/28 07:23:29;;;;;;;10.85;4.15;;;;;;;15.82;85.07;101262.28;5032613;28;20056;-49
2023/09/28 07:25:55;;;;;;;14.65;4.30;;;;;;;15.79;84.80;101260.03;5032719;28;20061;-48
2023/09/28 07:28:22;;;;;;;12.38;4.40;;;;;;;15.80;84.97;101256.28;5032738;28;20505;-48
2023/09/28 07:30:48;;;;;;;10.90;4.22;;;;;;;15.74;85.00;101255.34;5032859;28;20080;-47
2023/09/28 07:33:15;;;;;;;16.75;4.50;;;;;;;15.56;85.83;101261.59;5032614;28;20499;-47
2023/09/28 07:35:45;;;;;;;13.50;3.50;;;;;;;15.59;85.53;101258.41;5032815;28;20079;-47
2023/09/28 07:38:11;;;;;;;12.43;3.97;;;;;;;15.77;84.89;101251.38;5032444;28;20183;-47
2023/09/28 07:40:38;;;;;;;14.18;4.70;;;;;;;15.77;84.92;101256.78;5032673;28;20028;-49
2023/09/28 07:43:04;;;;;;;8.07;3.38;;;;;;;15.57;85.77;101263.22;5032599;28;20037;-50
2023/09/28 07:45:30;;;;;;;12.65;3.75;;;;;;;15.63;85.35;101272.31;5032661;28;20024;-47
2023/09/28 07:47:56;;;;;;;13.60;4.35;;;;;;;15.67;85.22;101268.09;5032508;28;20029;-47
2023/09/28 07:50:23;;;;;;;13.55;4.90;;;;;;;15.54;85.72;101269.06;5032764;28;20462;-48
2023/09/28 07:52:50;;;;;;;16.80;5.30;;;;;;;15.59;86.39;101271.09;5032610;28;20117;-50
2023/09/28 07:55:17;;;;;;;16.60;5.07;;;;;;;15.58;86.87;101270.25;5032493;28;20113;-50
2023/09/28 07:57:43;;;;;;;19.98;5.32;;;;;;;15.73;86.63;101258.28;5032540;28;20029;-49
2023/09/28 08:00:11;;;;;;;17.73;5.53;;;;;;;15.60;86.96;101270.03;5032522;28;20021;-47
2023/09/28 08:02:39;;;;;;;16.63;5.30;;;;;;;15.61;87.20;101268.19;5032547;28;20039;-50
2023/09/28 08:05:06;;;;;;;15.88;5.40;;;;;;;15.55;87.65;101269.91;5032839;28;20026;-47
2023/09/28 08:07:33;;;;;;;12.93;5.13;;;;;;;15.59;87.68;101265.69;5032300;28;20109;-47
2023/09/28 08:10:01;;;;;;;16.45;4.90;;;;;;;15.41;88.49;101258.47;5032424;28;20029;-47
2023/09/28 08:12:27;;;;;;;17.05;5.63;;;;;;;15.49;88.29;101263.56;5032314;28;20021;-50
2023/09/28 08:14:54;;;;;;;14.90;4.93;;;;;;;15.43;88.50;101261.75;5032741;28;20022;-50
2023/09/28 08:17:21;;;;;;;18.90;5.30;;;;;;;15.47;88.31;101256.72;5032502;28;20026;-47
2023/09/28 08:19:47;;;;;;;21.45;6.43;;;;;;;15.45;88.68;101253.44;5032617;28;20082;-47
2023/09/28 08:22:13;;;;;;;15.43;5.72;;;;;;;15.37;89.23;101251.88;5032373;28;20026;-46
2023/09/28 08:24:39;;;;;;;17.27;6.28;;;;;;;15.32;89.46;101249.88;5032429;28;20397;-47
2023/09/28 08:27:06;;;;;;;22.15;5.80;;;;;;;15.26;89.93;101255.34;5032722;28;20029;-46
2023/09/28 08:29:34;;;;;;;25.52;5.82;;;;;;;15.49;89.40;101250.06;5032224;28;20029;-47
2023/09/28 08:32:00;;;;;;;18.92;6.22;;;;;;;15.33;90.00;101258.78;5032542;28;20402;-49
2023/09/28 08:34:27;;;;;;;20.95;6.07;;;;;;;15.42;89.94;101261.97;5033260;28;20022;-50
2023/09/28 08:36:53;;;;;;;17.33;5.90;;;;;;;15.30;90.20;101257.34;5036162;28;20045;-47
2023/09/28 08:39:19;;;;;;;21.52;5.22;;;;;;;15.40;89.90;101259.53;5035856;28;20029;-49
2023/09/28 08:41:54;;;;;;;14.43;5.30;;;;;;;15.29;90.25;101271.06;5035941;28;20100;-46
2023/09/28 08:44:28;;;;;;;16.02;6.15;;;;;;;15.25;90.83;101249.13;5035869;28;20075;-48
2023/09/28 08:47:00;;;;;;;20.33;6.00;;;;;;;15.36;90.70;101252.09;5035614;28;20375;-47
2023/09/28 08:49:29;;;;;;;18.40;6.57;;;;;;;15.34;90.87;101249.63;5035722;28;20347;-48
2023/09/28 08:51:55;;;;;;;21.17;5.95;;;;;;;15.23;91.25;101239.63;5036268;28;20091;-47
2023/09/28 08:54:25;;;;;;;16.20;5.50;;;;;;;15.30;90.74;101240.34;5035688;28;20014;-48
2023/09/28 08:56:53;;;;;;;21.30;6.28;;;;;;;15.23;91.51;101236.91;5035793;28;20037;-51
2023/09/28 08:59:20;;;;;;;23.23;7.00;;;;;;;15.25;90.98;101242.91;5035503;28;20371;-48
2023/09/28 09:01:51;;;;;;;30.50;6.72;;;;;;;15.23;90.75;101248.53;5035315;28;20547;-47
2023/09/28 09:04:17;;;;;;;19.33;6.00;;;;;;;15.28;91.28;101242.47;5035353;28;20055;-46
2023/09/28 09:06:44;;;;;;;16.00;4.82;;;;;;;15.15;92.18;101242.59;5035188;28;20021;-51
2023/09/28 09:09:15;;;;;;;23.52;6.05;;;;;;;15.26;91.28;101236.44;5035371;28;20409;-46
2023/09/28 09:11:52;;;;;;;16.20;5.63;;;;;;;15.31;90.62;101242.00;5035200;28;20021;-47
2023/09/28 09:14:20;;;;;;;21.90;6.68;;;;;;;15.33;90.71;101245.31;5035142;28;20187;-48
2023/09/28 09:16:47;;;;;;;21.92;6.20;;;;;;;15.24;90.98;101235.88;5035492;28;20057;-47
2023/09/28 09:19:14;;;;;;;21.42;5.57;;;;;;;15.26;91.32;101242.66;5035054;28;20608;-49
2023/09/28 09:21:44;;;;;;;18.05;5.97;;;;;;;15.29;90.89;101244.09;5035108;28;20029;-48
2023/09/28 09:24:19;;;;;;;25.83;6.95;;;;;;;15.28;90.40;101250.56;5034947;28;20037;-47
2023/09/28 09:26:47;;;;;;;18.65;5.82;;;;;;;15.14;91.30;101257.97;5033979;28;20544;-47
2023/09/28 09:29:15;;;;;;;25.80;6.25;;;;;;;15.18;91.03;101258.34;5016231;28;20034;-47
2023/09/28 09:31:44;;;;;;;22.98;7.10;;;;;;;15.25;90.97;101253.69;5033902;28;20045;-47
2023/09/28 09:34:14;;;;;;;17.67;6.10;;;;;;;15.18;91.08;101256.47;5033922;28;20029;-48
2023/09/28 09:36:43;;;;;;;17.23;5.90;;;;;;;15.14;91.34;101259.84;5033983;28;20049;-47
2023/09/28 09:39:30;;;;;;;23.63;7.03;;;;;;;15.20;91.74;101250.84;5034140;28;20115;-50
2023/09/28 09:41:59;;;;;;;26.63;6.90;;;;;;;15.20;91.69;101258.94;5034461;28;20087;-46
2023/09/28 09:44:27;;;;;;;17.65;5.90;;;;;;;15.13;92.70;101252.81;5033774;28;20025;-46
2023/09/28 09:46:55;;;;;;;20.35;6.10;;;;;;;15.18;92.43;101250.25;5033676;28;20025;-51
2023/09/28 09:49:26;;;;;;;21.13;6.40;;;;;;;15.21;92.36;101247.94;5033602;28;20420;-46
2023/09/28 09:51:53;;;;;;;22.35;6.40;;;;;;;15.14;92.48;101243.66;5033726;28;20021;-47
2023/09/28 09:54:21;;;;;;;23.10;6.68;;;;;;;15.13;92.93;101244.72;5033536;28;20025;-48
2023/09/28 09:56:49;;;;;;;21.90;6.75;;;;;;;15.09;92.95;101238.94;5033928;28;20060;-47
2023/09/28 09:59:21;;;;;;;18.02;5.97;;;;;;;15.25;92.53;101232.94;5033662;28;20030;-51
2023/09/28 10:01:52;;;;;;;28.60;6.95;;;;;;;15.24;92.55;101222.38;5033599;28;20592;-47
2023/09/28 10:04:21;;;;;;;17.75;6.20;;;;;;;15.27;92.09;101233.56;5033288;28;20536;-48
2023/09/28 10:06:51;;;;;;;22.60;6.53;;;;;;;15.15;93.01;101238.03;5033392;28;20393;-47
2023/09/28 10:09:22;;;;;;;27.08;6.85;;;;;;;15.25;92.81;101237.50;5033368;28;20108;-46
2023/09/28 10:11:51;;;;;;;17.92;5.20;;;;;;;15.12;92.86;101233.13;5033176;28;20025;-50
2023/09/28 10:14:20;;;;;;;22.77;7.32;;;;;;;15.29;92.30;101241.41;5032975;28;20045;-48
2023/09/28 10:16:50;;;;;;;20.55;6.53;;;;;;;15.21;92.45;101242.56;5015484;28;20029;-51
2023/09/28 10:19:21;;;;;;;23.10;6.95;;;;;;;15.40;91.57;101235.25;5033095;28;20421;-47
2023/09/28 10:21:48;;;;;;;19.08;6.43;;;;;;;15.29;91.34;101230.63;5034045;28;20022;-48
2023/09/28 10:24:17;;;;;;;20.83;6.50;;;;;;;15.22;91.68;101222.63;5033823;28;20028;-47
2023/09/28 10:26:51;;;;;;;18.85;6.20;;;;;;;15.22;92.03;101227.19;5033139;28;20072;-48
2023/09/28 10:29:32;;;;;;;18.42;7.82;;;;;;;15.17;91.90;101238.66;5033133;28;20026;-50
2023/09/28 10:31:59;;;;;;;19.48;6.50;;;;;;;15.24;91.27;101227.78;5032814;28;20080;-48
2023/09/28 10:34:29;;;;;;;19.45;6.63;;;;;;;15.24;92.11;101225.91;5032711;28;20026;-50
2023/09/28 10:37:18;;;;;;;16.90;6.60;;;;;;;15.25;91.10;101226.72;5033438;28;20204;-47
2023/09/28 10:39:53;;;;;;;13.40;5.85;;;;;;;15.08;91.58;101215.75;5033111;28;20049;-47
2023/09/28 10:42:22;;;;;;;24.05;6.57;;;;;;;15.01;91.44;101218.53;5032627;28;20037;-48
2023/09/28 10:45:00;;;;;;;17.23;6.00;;;;;;;15.08;91.33;101210.34;5032454;28;20033;-50
2023/09/28 10:47:27;;;;;;;24.13;6.57;;;;;;;15.23;91.14;101212.66;5032751;28;20037;-47
2023/09/28 10:50:08;;;;;;;20.83;6.40;;;;;;;15.07;92.20;101207.88;5032857;28;20025;-47
2023/09/28 10:52:34;;;;;;;18.55;5.75;;;;;;;15.23;91.68;101208.09;5032696;28;20097;-50
2023/09/28 10:55:00;;;;;;;23.00;6.43;;;;;;;14.99;91.94;101217.94;5032842;28;20028;-50
2023/09/28 10:57:31;;;;;;;17.38;5.28;;;;;;;14.84;92.04;101209.41;5031726;28;20036;-47
2023/09/28 11:00:00;;;;;;;23.45;6.60;;;;;;;14.82;92.27;101206.09;5032982;28;20025;-48
2023/09/28 11:02:26;;;;;;;20.52;7.13;;;;;;;14.86;92.27;101207.28;5032191;28;20439;-47
2023/09/28 11:04:52;;;;;;;19.60;6.40;;;;;;;14.93;92.11;101208.03;5032245;28;20033;-47
2023/09/28 11:07:20;;;;;;;20.23;5.60;;;;;;;14.87;92.46;101221.59;5032120;28;20029;-47
2023/09/28 11:09:46;;;;;;;18.33;6.60;;;;;;;14.97;92.05;101216.50;5032261;28;20022;-45
2023/09/28 11:12:13;;;;;;;21.52;6.05;;;;;;;14.88;91.99;101216.00;5048343;28;20029;-44
2023/09/28 11:14:42;;;;;;;19.30;7.00;;;;;;;14.79;91.83;101218.16;5033015;28;20055;-44
2023/09/28 11:17:09;;;;;;;16.45;6.43;;;;;;;14.82;92.22;101222.25;5032959;28;20036;-45
2023/09/28 11:19:35;;;;;;;22.70;7.13;;;;;;;14.98;91.63;101221.66;5032987;28;20026;-45
2023/09/28 11:22:02;;;;;;;17.35;5.82;;;;;;;14.95;91.51;101211.34;5032911;28;20026;-45
2023/09/28 11:24:28;;;;;;;23.00;6.22;;;;;;;14.98;91.38;101213.56;5033258;28;20026;-46
2023/09/28 11:26:56;;;;;;;18.48;5.93;;;;;;;14.84;91.88;101214.78;5032118;28;20026;-45